sensor_id;sensor_type;location;lat;lon;timestamp;P1;durP1;ratioP1;P2;durP2;ratioP2
25129;SDS011;13308;50.860;13.664;2023-10-19T05:29:57;12.00;;;9.35;;
25129;SDS011;13308;50.860;13.664;2023-10-19T05:32:22;19.05;;;11.23;;
25129;SDS011;13308;50.860;13.664;2023-10-19T05:34:49;17.20;;;10.63;;
25129;SDS011;13308;50.860;13.664;2023-10-19T05:37:14;19.40;;;11.73;;
25129;SDS011;13308;50.860;13.664;2023-10-19T05:39:41;18.85;;;12.13;;
25129;SDS011;13308;50.860;13.664;2023-10-19T05:42:07;19.10;;;12.00;;
25129;SDS011;13308;50.860;13.664;2023-10-19T05:44:32;18.33;;;11.18;;
25129;SDS011;13308;50.860;13.664;2023-10-19T05:46:58;17.85;;;11.40;;
25129;SDS011;13308;50.860;13.664;2023-10-19T05:49:23;18.85;;;12.27;;
25129;SDS011;13308;50.860;13.664;2023-10-19T05:51:49;22.27;;;12.45;;
25129;SDS011;13308;50.860;13.664;2023-10-19T05:54:15;21.52;;;13.00;;
25129;SDS011;13308;50.860;13.664;2023-10-19T05:56:42;23.67;;;14.18;;
25129;SDS011;13308;50.860;13.664;2023-10-19T05:59:07;29.88;;;14.50;;
25129;SDS011;13308;50.860;13.664;2023-10-19T06:01:35;25.40;;;14.07;;
25129;SDS011;13308;50.860;13.664;2023-10-19T06:04:00;26.75;;;13.75;;
25129;SDS011;13308;50.860;13.664;2023-10-19T06:06:26;24.10;;;14.10;;
25129;SDS011;13308;50.860;13.664;2023-10-19T06:08:51;22.27;;;13.23;;
25129;SDS011;13308;50.860;13.664;2023-10-19T06:11:19;23.35;;;13.95;;
25129;SDS011;13308;50.860;13.664;2023-10-19T06:13:45;23.15;;;13.93;;
25129;SDS011;13308;50.860;13.664;2023-10-19T06:16:11;23.92;;;14.20;;
25129;SDS011;13308;50.860;13.664;2023-10-19T06:18:36;21.80;;;13.88;;
25129;SDS011;13308;50.860;13.664;2023-10-19T06:21:02;25.73;;;14.60;;
25129;SDS011;13308;50.860;13.664;2023-10-19T06:23:29;24.58;;;14.82;;
25129;SDS011;13308;50.860;13.664;2023-10-19T06:25:56;25.80;;;14.88;;
25129;SDS011;13308;50.860;13.664;2023-10-19T06:28:21;23.50;;;13.70;;
25129;SDS011;13308;50.860;13.664;2023-10-19T06:30:47;29.48;;;14.88;;
25129;SDS011;13308;50.860;13.664;2023-10-19T06:33:13;22.90;;;13.77;;
25129;SDS011;13308;50.860;13.664;2023-10-19T06:35:38;23.63;;;14.35;;
25129;SDS011;13308;50.860;13.664;2023-10-19T06:38:05;21.02;;;14.02;;
25129;SDS011;13308;50.860;13.664;2023-10-19T06:40:33;24.13;;;13.80;;
25129;SDS011;13308;50.860;13.664;2023-10-19T06:42:59;21.80;;;12.95;;
25129;SDS011;13308;50.860;13.664;2023-10-19T06:45:27;25.50;;;14.05;;
25129;SDS011;13308;50.860;13.664;2023-10-19T06:47:52;24.30;;;13.45;;
25129;SDS011;13308;50.860;13.664;2023-10-19T06:50:19;22.73;;;13.50;;
25129;SDS011;13308;50.860;13.664;2023-10-19T06:52:46;20.90;;;13.30;;
25129;SDS011;13308;50.860;13.664;2023-10-19T06:55:15;25.88;;;14.20;;
25129;SDS011;13308;50.860;13.664;2023-10-19T06:57:53;22.38;;;13.45;;
25129;SDS011;13308;50.860;13.664;2023-10-19T07:00:21;23.83;;;12.98;;
25129;SDS011;13308;50.860;13.664;2023-10-19T07:02:51;25.13;;;13.88;;
25129;SDS011;13308;50.860;13.664;2023-10-19T07:05:17;21.38;;;14.02;;
25129;SDS011;13308;50.860;13.664;2023-10-19T07:07:46;21.23;;;12.95;;
25129;SDS011;13308;50.860;13.664;2023-10-19T07:10:12;21.90;;;13.48;;
25129;SDS011;13308;50.860;13.664;2023-10-19T07:12:39;20.77;;;12.43;;
25129;SDS011;13308;50.860;13.664;2023-10-19T07:15:07;25.10;;;13.43;;
25129;SDS011;13308;50.860;13.664;2023-10-19T07:17:35;23.55;;;13.73;;
25129;SDS011;13308;50.860;13.664;2023-10-19T07:20:01;22.27;;;13.95;;
25129;SDS011;13308;50.860;13.664;2023-10-19T07:22:28;24.23;;;14.32;;
25129;SDS011;13308;50.860;13.664;2023-10-19T07:24:53;28.27;;;15.75;;
25129;SDS011;13308;50.860;13.664;2023-10-19T07:27:20;25.23;;;14.13;;
25129;SDS011;13308;50.860;13.664;2023-10-19T07:29:46;24.95;;;14.35;;
25129;SDS011;13308;50.860;13.664;2023-10-19T07:32:12;26.42;;;14.68;;
25129;SDS011;13308;50.860;13.664;2023-10-19T07:34:38;25.20;;;14.40;;
25129;SDS011;13308;50.860;13.664;2023-10-19T07:37:04;21.17;;;13.30;;
25129;SDS011;13308;50.860;13.664;2023-10-19T07:39:30;21.90;;;12.90;;
25129;SDS011;13308;50.860;13.664;2023-10-19T07:41:58;24.20;;;14.30;;
25129;SDS011;13308;50.860;13.664;2023-10-19T07:44:24;20.25;;;13.20;;
25129;SDS011;13308;50.860;13.664;2023-10-19T07:46:49;21.58;;;12.43;;
25129;SDS011;13308;50.860;13.664;2023-10-19T07:49:15;23.23;;;13.30;;
25129;SDS011;13308;50.860;13.664;2023-10-19T07:51:46;17.88;;;12.18;;
25129;SDS011;13308;50.860;13.664;2023-10-19T07:54:12;19.98;;;12.10;;
25129;SDS011;13308;50.860;13.664;2023-10-19T07:56:38;22.90;;;13.00;;
25129;SDS011;13308;50.860;13.664;2023-10-19T07:59:04;20.77;;;13.15;;
25129;SDS011;13308;50.860;13.664;2023-10-19T08:01:29;17.65;;;11.57;;
25129;SDS011;13308;50.860;13.664;2023-10-19T08:03:55;21.70;;;12.43;;
25129;SDS011;13308;50.860;13.664;2023-10-19T08:06:21;20.55;;;12.60;;
25129;SDS011;13308;50.860;13.664;2023-10-19T08:08:46;17.27;;;11.32;;
25129;SDS011;13308;50.860;13.664;2023-10-19T08:11:11;15.57;;;10.88;;
25129;SDS011;13308;50.860;13.664;2023-10-19T08:13:37;15.35;;;10.45;;
25129;SDS011;13308;50.860;13.664;2023-10-19T08:16:05;14.75;;;10.38;;
25129;SDS011;13308;50.860;13.664;2023-10-19T08:18:32;14.90;;;11.30;;
25129;SDS011;13308;50.860;13.664;2023-10-19T08:21:00;14.90;;;10.38;;
25129;SDS011;13308;50.860;13.664;2023-10-19T08:23:26;15.10;;;9.75;;
25129;SDS011;13308;50.860;13.664;2023-10-19T08:25:52;15.30;;;10.30;;
25129;SDS011;13308;50.860;13.664;2023-10-19T08:28:18;14.43;;;9.93;;
25129;SDS011;13308;50.860;13.664;2023-10-19T08:30:44;14.05;;;10.15;;
25129;SDS011;13308;50.860;13.664;2023-10-19T08:33:21;12.02;;;9.48;;
25129;SDS011;13308;50.860;13.664;2023-10-19T08:35:47;25.35;;;18.20;;
25129;SDS011;13308;50.860;13.664;2023-10-19T08:38:12;26.77;;;17.33;;
25129;SDS011;13308;50.860;13.664;2023-10-19T08:40:38;13.60;;;10.57;;
25129;SDS011;13308;50.860;13.664;2023-10-19T08:43:05;14.65;;;11.38;;
25129;SDS011;13308;50.860;13.664;2023-10-19T08:45:32;14.60;;;11.10;;
25129;SDS011;13308;50.860;13.664;2023-10-19T08:47:59;14.35;;;10.40;;
25129;SDS011;13308;50.860;13.664;2023-10-19T08:50:27;13.25;;;9.93;;
25129;SDS011;13308;50.860;13.664;2023-10-19T08:52:54;13.98;;;9.75;;
25129;SDS011;13308;50.860;13.664;2023-10-19T08:55:22;10.93;;;8.68;;
25129;SDS011;13308;50.860;13.664;2023-10-19T08:57:48;11.88;;;9.32;;
25129;SDS011;13308;50.860;13.664;2023-10-19T09:00:14;10.20;;;8.40;;
25129;SDS011;13308;50.860;13.664;2023-10-19T09:02:44;10.90;;;8.73;;
25129;SDS011;13308;50.860;13.664;2023-10-19T09:05:10;10.23;;;8.32;;
25129;SDS011;13308;50.860;13.664;2023-10-19T09:07:48;10.35;;;8.27;;
25129;SDS011;13308;50.860;13.664;2023-10-19T09:10:27;11.55;;;8.18;;
25129;SDS011;13308;50.860;13.664;2023-10-19T09:13:01;14.68;;;8.35;;
25129;SDS011;13308;50.860;13.664;2023-10-19T09:15:34;9.90;;;7.95;;
25129;SDS011;13308;50.860;13.664;2023-10-19T09:20:49;12.35;;;7.65;;
25129;SDS011;13308;50.860;13.664;2023-10-19T09:23:25;11.02;;;8.38;;
25129;SDS011;13308;50.860;13.664;2023-10-19T09:25:55;10.45;;;8.82;;
25129;SDS011;13308;50.860;13.664;2023-10-19T09:28:21;11.23;;;8.55;;
25129;SDS011;13308;50.860;13.664;2023-10-19T09:30:49;11.05;;;8.75;;
25129;SDS011;13308;50.860;13.664;2023-10-19T09:33:15;16.20;;;10.80;;
25129;SDS011;13308;50.860;13.664;2023-10-19T09:35:43;12.23;;;9.15;;
25129;SDS011;13308;50.860;13.664;2023-10-19T09:38:17;12.07;;;9.32;;
25129;SDS011;13308;50.860;13.664;2023-10-19T09:40:47;12.70;;;9.35;;
25129;SDS011;13308;50.860;13.664;2023-10-19T09:43:48;16.13;;;10.13;;
25129;SDS011;13308;50.860;13.664;2023-10-19T09:46:10;13.35;;;9.23;;
25129;SDS011;13308;50.860;13.664;2023-10-19T09:48:45;13.07;;;9.55;;
25129;SDS011;13308;50.860;13.664;2023-10-19T09:51:12;14.02;;;10.00;;
25129;SDS011;13308;50.860;13.664;2023-10-19T09:53:39;15.30;;;10.65;;
25129;SDS011;13308;50.860;13.664;2023-10-19T09:56:06;15.13;;;10.43;;
25129;SDS011;13308;50.860;13.664;2023-10-19T09:58:40;20.73;;;10.75;;
25129;SDS011;13308;50.860;13.664;2023-10-19T10:01:10;18.00;;;10.85;;
25129;SDS011;13308;50.860;13.664;2023-10-19T10:03:45;17.95;;;11.10;;
25129;SDS011;13308;50.860;13.664;2023-10-19T10:06:11;14.98;;;11.57;;
25129;SDS011;13308;50.860;13.664;2023-10-19T10:08:39;17.73;;;12.18;;
25129;SDS011;13308;50.860;13.664;2023-10-19T10:11:24;17.42;;;12.05;;
25129;SDS011;13308;50.860;13.664;2023-10-19T10:13:57;15.32;;;11.95;;
25129;SDS011;13308;50.860;13.664;2023-10-19T10:16:24;18.33;;;12.32;;
25129;SDS011;13308;50.860;13.664;2023-10-19T10:18:51;19.48;;;12.68;;
25129;SDS011;13308;50.860;13.664;2023-10-19T10:21:20;21.40;;;13.20;;
25129;SDS011;13308;50.860;13.664;2023-10-19T10:23:51;19.80;;;13.38;;
25129;SDS011;13308;50.860;13.664;2023-10-19T10:26:22;18.67;;;11.85;;
25129;SDS011;13308;50.860;13.664;2023-10-19T10:31:48;16.92;;;12.13;;
25129;SDS011;13308;50.860;13.664;2023-10-19T10:39:33;15.32;;;11.75;;
25129;SDS011;13308;50.860;13.664;2023-10-19T10:42:02;15.27;;;11.00;;
25129;SDS011;13308;50.860;13.664;2023-10-19T10:47:18;16.55;;;11.20;;
25129;SDS011;13308;50.860;13.664;2023-10-19T10:49:59;17.08;;;11.48;;
25129;SDS011;13308;50.860;13.664;2023-10-19T10:55:08;17.58;;;11.90;;
25129;SDS011;13308;50.860;13.664;2023-10-19T10:57:39;19.13;;;12.27;;
25129;SDS011;13308;50.860;13.664;2023-10-19T11:02:34;15.32;;;10.98;;
25129;SDS011;13308;50.860;13.664;2023-10-19T11:05:00;13.70;;;10.18;;
25129;SDS011;13308;50.860;13.664;2023-10-19T11:07:26;13.85;;;10.27;;
25129;SDS011;13308;50.860;13.664;2023-10-19T11:09:51;19.17;;;10.05;;
25129;SDS011;13308;50.860;13.664;2023-10-19T11:12:17;12.75;;;9.73;;
25129;SDS011;13308;50.860;13.664;2023-10-19T11:14:54;11.55;;;9.55;;
25129;SDS011;13308;50.860;13.664;2023-10-19T11:17:23;11.40;;;9.10;;
25129;SDS011;13308;50.860;13.664;2023-10-19T11:19:54;11.23;;;9.43;;
25129;SDS011;13308;50.860;13.664;2023-10-19T11:22:21;13.40;;;8.60;;
25129;SDS011;13308;50.860;13.664;2023-10-19T11:24:47;13.57;;;8.90;;
25129;SDS011;13308;50.860;13.664;2023-10-19T11:27:12;12.77;;;10.18;;
25129;SDS011;13308;50.860;13.664;2023-10-19T11:29:37;13.82;;;8.98;;
25129;SDS011;13308;50.860;13.664;2023-10-19T11:32:03;11.18;;;8.82;;
25129;SDS011;13308;50.860;13.664;2023-10-19T11:34:29;12.35;;;9.20;;
25129;SDS011;13308;50.860;13.664;2023-10-19T11:36:57;10.55;;;8.52;;
25129;SDS011;13308;50.860;13.664;2023-10-19T11:39:25;11.43;;;9.02;;
25129;SDS011;13308;50.860;13.664;2023-10-19T11:41:50;13.23;;;9.30;;
25129;SDS011;13308;50.860;13.664;2023-10-19T11:44:16;9.20;;;8.30;;
25129;SDS011;13308;50.860;13.664;2023-10-19T11:46:41;12.05;;;8.95;;
25129;SDS011;13308;50.860;13.664;2023-10-19T11:49:06;11.60;;;8.70;;
25129;SDS011;13308;50.860;13.664;2023-10-19T11:51:34;13.55;;;8.45;;
25129;SDS011;13308;50.860;13.664;2023-10-19T11:53:59;13.25;;;9.85;;
25129;SDS011;13308;50.860;13.664;2023-10-19T11:56:24;14.48;;;11.35;;
25129;SDS011;13308;50.860;13.664;2023-10-19T11:58:50;10.43;;;8.90;;
25129;SDS011;13308;50.860;13.664;2023-10-19T12:01:15;8.95;;;8.00;;
25129;SDS011;13308;50.860;13.664;2023-10-19T12:03:42;9.57;;;8.07;;
25129;SDS011;13308;50.860;13.664;2023-10-19T12:06:10;11.00;;;8.88;;
25129;SDS011;13308;50.860;13.664;2023-10-19T12:08:37;10.20;;;8.82;;
25129;SDS011;13308;50.860;13.664;2023-10-19T12:11:04;9.10;;;8.05;;
25129;SDS011;13308;50.860;13.664;2023-10-19T12:13:40;10.38;;;8.50;;
25129;SDS011;13308;50.860;13.664;2023-10-19T12:16:09;12.80;;;9.35;;
25129;SDS011;13308;50.860;13.664;2023-10-19T12:18:40;10.27;;;8.60;;
25129;SDS011;13308;50.860;13.664;2023-10-19T12:21:07;10.02;;;8.45;;
25129;SDS011;13308;50.860;13.664;2023-10-19T12:23:36;9.80;;;8.20;;
25129;SDS011;13308;50.860;13.664;2023-10-19T12:26:03;9.90;;;8.50;;
25129;SDS011;13308;50.860;13.664;2023-10-19T12:28:36;8.52;;;7.43;;
25129;SDS011;13308;50.860;13.664;2023-10-19T12:31:03;9.63;;;8.15;;
25129;SDS011;13308;50.860;13.664;2023-10-19T12:33:30;18.67;;;13.32;;
25129;SDS011;13308;50.860;13.664;2023-10-19T12:35:55;16.58;;;13.73;;
25129;SDS011;13308;50.860;13.664;2023-10-19T12:38:22;14.32;;;10.10;;
25129;SDS011;13308;50.860;13.664;2023-10-19T12:40:49;10.18;;;9.10;;
25129;SDS011;13308;50.860;13.664;2023-10-19T12:43:19;8.77;;;7.47;;
25129;SDS011;13308;50.860;13.664;2023-10-19T12:45:47;8.07;;;7.28;;
25129;SDS011;13308;50.860;13.664;2023-10-19T12:48:22;8.10;;;7.30;;
25129;SDS011;13308;50.860;13.664;2023-10-19T12:50:55;7.63;;;6.93;;
25129;SDS011;13308;50.860;13.664;2023-10-19T12:53:20;7.18;;;6.47;;
25129;SDS011;13308;50.860;13.664;2023-10-19T12:55:49;6.82;;;6.22;;
25129;SDS011;13308;50.860;13.664;2023-10-19T12:58:15;7.15;;;6.43;;
25129;SDS011;13308;50.860;13.664;2023-10-19T13:00:44;6.80;;;6.20;;
25129;SDS011;13308;50.860;13.664;2023-10-19T13:03:10;6.30;;;5.70;;
25129;SDS011;13308;50.860;13.664;2023-10-19T13:05:38;9.05;;;8.18;;
25129;SDS011;13308;50.860;13.664;2023-10-19T13:08:06;6.90;;;6.13;;
25129;SDS011;13308;50.860;13.664;2023-10-19T13:10:44;6.20;;;5.60;;
25129;SDS011;13308;50.860;13.664;2023-10-19T13:13:12;7.75;;;5.30;;
25129;SDS011;13308;50.860;13.664;2023-10-19T13:15:43;5.43;;;4.93;;
25129;SDS011;13308;50.860;13.664;2023-10-19T13:18:09;5.65;;;5.15;;
25129;SDS011;13308;50.860;13.664;2023-10-19T13:20:39;5.85;;;5.32;;
25129;SDS011;13308;50.860;13.664;2023-10-19T13:23:09;5.95;;;5.38;;
25129;SDS011;13308;50.860;13.664;2023-10-19T13:25:41;5.85;;;5.22;;
25129;SDS011;13308;50.860;13.664;2023-10-19T13:28:09;5.85;;;5.35;;
25129;SDS011;13308;50.860;13.664;2023-10-19T13:30:43;5.80;;;5.22;;
25129;SDS011;13308;50.860;13.664;2023-10-19T13:33:13;7.75;;;6.97;;
25129;SDS011;13308;50.860;13.664;2023-10-19T13:35:39;6.65;;;5.95;;
25129;SDS011;13308;50.860;13.664;2023-10-19T13:38:06;6.55;;;5.95;;
25129;SDS011;13308;50.860;13.664;2023-10-19T13:40:33;6.25;;;5.70;;
25129;SDS011;13308;50.860;13.664;2023-10-19T13:42:59;8.20;;;6.80;;
25129;SDS011;13308;50.860;13.664;2023-10-19T13:45:25;7.93;;;6.88;;
25129;SDS011;13308;50.860;13.664;2023-10-19T13:47:50;7.97;;;7.25;;
25129;SDS011;13308;50.860;13.664;2023-10-19T13:50:22;9.00;;;8.10;;
25129;SDS011;13308;50.860;13.664;2023-10-19T13:52:49;7.28;;;6.40;;
25129;SDS011;13308;50.860;13.664;2023-10-19T13:55:15;7.95;;;5.97;;
25129;SDS011;13308;50.860;13.664;2023-10-19T13:57:44;7.97;;;6.50;;
25129;SDS011;13308;50.860;13.664;2023-10-19T14:00:11;6.25;;;5.55;;
25129;SDS011;13308;50.860;13.664;2023-10-19T14:02:44;6.53;;;5.93;;
25129;SDS011;13308;50.860;13.664;2023-10-19T14:05:10;8.50;;;7.47;;
25129;SDS011;13308;50.860;13.664;2023-10-19T14:07:36;7.40;;;6.68;;
25129;SDS011;13308;50.860;13.664;2023-10-19T14:10:05;6.43;;;5.85;;
25129;SDS011;13308;50.860;13.664;2023-10-19T14:12:32;5.97;;;5.03;;
25129;SDS011;13308;50.860;13.664;2023-10-19T14:14:58;7.18;;;5.80;;
25129;SDS011;13308;50.860;13.664;2023-10-19T14:17:24;6.25;;;5.70;;
25129;SDS011;13308;50.860;13.664;2023-10-19T14:19:50;6.93;;;6.13;;
25129;SDS011;13308;50.860;13.664;2023-10-19T14:22:16;6.28;;;5.68;;
25129;SDS011;13308;50.860;13.664;2023-10-19T14:24:42;6.55;;;5.95;;
25129;SDS011;13308;50.860;13.664;2023-10-19T14:27:08;7.15;;;6.45;;
25129;SDS011;13308;50.860;13.664;2023-10-19T14:29:34;6.10;;;5.47;;
25129;SDS011;13308;50.860;13.664;2023-10-19T14:31:59;7.03;;;6.20;;
25129;SDS011;13308;50.860;13.664;2023-10-19T14:34:25;6.40;;;5.80;;
25129;SDS011;13308;50.860;13.664;2023-10-19T14:36:52;7.75;;;6.13;;
25129;SDS011;13308;50.860;13.664;2023-10-19T14:39:18;6.22;;;5.65;;
25129;SDS011;13308;50.860;13.664;2023-10-19T14:41:45;9.05;;;7.70;;
25129;SDS011;13308;50.860;13.664;2023-10-19T14:44:11;7.18;;;5.97;;
25129;SDS011;13308;50.860;13.664;2023-10-19T14:46:36;6.28;;;5.70;;
25129;SDS011;13308;50.860;13.664;2023-10-19T14:49:01;7.07;;;6.38;;
25129;SDS011;13308;50.860;13.664;2023-10-19T14:51:27;8.65;;;6.90;;
25129;SDS011;13308;50.860;13.664;2023-10-19T14:53:52;7.00;;;6.30;;
25129;SDS011;13308;50.860;13.664;2023-10-19T14:56:18;8.63;;;6.57;;
25129;SDS011;13308;50.860;13.664;2023-10-19T14:58:43;6.80;;;5.97;;
25129;SDS011;13308;50.860;13.664;2023-10-19T15:01:09;7.20;;;6.47;;
25129;SDS011;13308;50.860;13.664;2023-10-19T15:03:40;6.97;;;6.15;;
25129;SDS011;13308;50.860;13.664;2023-10-19T15:06:05;8.57;;;7.05;;
25129;SDS011;13308;50.860;13.664;2023-10-19T15:08:31;7.88;;;7.03;;
25129;SDS011;13308;50.860;13.664;2023-10-19T15:10:57;8.35;;;6.68;;
25129;SDS011;13308;50.860;13.664;2023-10-19T15:13:23;8.40;;;6.63;;
25129;SDS011;13308;50.860;13.664;2023-10-19T15:15:49;8.38;;;6.53;;
25129;SDS011;13308;50.860;13.664;2023-10-19T15:18:14;6.97;;;6.28;;
25129;SDS011;13308;50.860;13.664;2023-10-19T15:20:39;10.40;;;7.45;;
25129;SDS011;13308;50.860;13.664;2023-10-19T15:23:06;7.65;;;6.43;;
25129;SDS011;13308;50.860;13.664;2023-10-19T15:25:32;6.85;;;6.20;;
25129;SDS011;13308;50.860;13.664;2023-10-19T15:27:58;7.57;;;6.57;;
25129;SDS011;13308;50.860;13.664;2023-10-19T15:30:23;8.05;;;6.20;;
25129;SDS011;13308;50.860;13.664;2023-10-19T15:32:50;6.72;;;6.03;;
25129;SDS011;13308;50.860;13.664;2023-10-19T15:35:16;8.70;;;7.13;;
25129;SDS011;13308;50.860;13.664;2023-10-19T15:37:46;8.25;;;7.38;;
25129;SDS011;13308;50.860;13.664;2023-10-19T15:40:13;8.35;;;7.15;;
25129;SDS011;13308;50.860;13.664;2023-10-19T15:42:40;8.43;;;7.05;;
25129;SDS011;13308;50.860;13.664;2023-10-19T15:45:11;9.43;;;8.27;;
25129;SDS011;13308;50.860;13.664;2023-10-19T15:47:38;9.60;;;6.78;;
25129;SDS011;13308;50.860;13.664;2023-10-19T15:50:08;7.38;;;6.55;;
25129;SDS011;13308;50.860;13.664;2023-10-19T15:52:33;7.28;;;6.57;;
25129;SDS011;13308;50.860;13.664;2023-10-19T15:55:00;9.98;;;8.10;;
25129;SDS011;13308;50.860;13.664;2023-10-19T15:57:26;8.15;;;7.18;;
25129;SDS011;13308;50.860;13.664;2023-10-19T15:59:51;9.90;;;7.38;;
25129;SDS011;13308;50.860;13.664;2023-10-19T16:02:17;8.43;;;7.10;;
25129;SDS011;13308;50.860;13.664;2023-10-19T16:04:43;8.25;;;7.45;;
25129;SDS011;13308;50.860;13.664;2023-10-19T16:07:13;8.95;;;7.57;;
25129;SDS011;13308;50.860;13.664;2023-10-19T16:09:43;8.38;;;7.28;;
25129;SDS011;13308;50.860;13.664;2023-10-19T16:12:09;7.82;;;6.70;;
25129;SDS011;13308;50.860;13.664;2023-10-19T16:14:36;8.95;;;7.20;;
25129;SDS011;13308;50.860;13.664;2023-10-19T16:17:03;7.68;;;6.95;;
25129;SDS011;13308;50.860;13.664;2023-10-19T16:19:29;8.35;;;7.55;;
25129;SDS011;13308;50.860;13.664;2023-10-19T16:21:55;8.40;;;7.15;;
25129;SDS011;13308;50.860;13.664;2023-10-19T16:24:20;9.77;;;7.80;;
25129;SDS011;13308;50.860;13.664;2023-10-19T16:26:46;15.27;;;10.90;;
25129;SDS011;13308;50.860;13.664;2023-10-19T16:29:11;20.88;;;10.35;;
25129;SDS011;13308;50.860;13.664;2023-10-19T16:31:40;10.90;;;8.10;;
25129;SDS011;13308;50.860;13.664;2023-10-19T16:34:08;10.05;;;7.57;;
25129;SDS011;13308;50.860;13.664;2023-10-19T16:36:35;11.05;;;6.68;;
25129;SDS011;13308;50.860;13.664;2023-10-19T16:39:01;7.30;;;6.50;;
25129;SDS011;13308;50.860;13.664;2023-10-19T16:41:26;9.73;;;7.18;;
25129;SDS011;13308;50.860;13.664;2023-10-19T16:43:51;11.55;;;7.50;;
25129;SDS011;13308;50.860;13.664;2023-10-19T16:46:17;20.98;;;13.07;;
25129;SDS011;13308;50.860;13.664;2023-10-19T16:48:43;10.30;;;8.93;;
25129;SDS011;13308;50.860;13.664;2023-10-19T16:51:09;9.50;;;7.75;;
25129;SDS011;13308;50.860;13.664;2023-10-19T16:53:34;7.93;;;6.85;;
25129;SDS011;13308;50.860;13.664;2023-10-19T16:56:00;9.30;;;6.93;;
25129;SDS011;13308;50.860;13.664;2023-10-19T16:58:26;8.50;;;6.28;;
25129;SDS011;13308;50.860;13.664;2023-10-19T17:00:52;7.40;;;6.70;;
25129;SDS011;13308;50.860;13.664;2023-10-19T17:03:18;6.85;;;6.05;;
25129;SDS011;13308;50.860;13.664;2023-10-19T17:05:43;8.02;;;6.90;;
25129;SDS011;13308;50.860;13.664;2023-10-19T17:08:09;6.30;;;5.70;;
25129;SDS011;13308;50.860;13.664;2023-10-19T17:10:34;6.47;;;5.82;;
25129;SDS011;13308;50.860;13.664;2023-10-19T17:13:01;6.70;;;6.10;;
25129;SDS011;13308;50.860;13.664;2023-10-19T17:15:26;8.45;;;6.50;;
25129;SDS011;13308;50.860;13.664;2023-10-19T17:17:52;10.23;;;6.57;;
25129;SDS011;13308;50.860;13.664;2023-10-19T17:20:18;7.32;;;6.30;;
25129;SDS011;13308;50.860;13.664;2023-10-19T17:22:44;7.05;;;6.30;;
25129;SDS011;13308;50.860;13.664;2023-10-19T17:25:09;8.00;;;6.50;;
25129;SDS011;13308;50.860;13.664;2023-10-19T17:27:35;9.23;;;6.85;;
25129;SDS011;13308;50.860;13.664;2023-10-19T17:30:00;7.60;;;5.88;;
25129;SDS011;13308;50.860;13.664;2023-10-19T17:32:26;8.32;;;6.65;;
25129;SDS011;13308;50.860;13.664;2023-10-19T17:34:52;6.18;;;5.57;;
25129;SDS011;13308;50.860;13.664;2023-10-19T17:37:19;6.72;;;6.03;;
25129;SDS011;13308;50.860;13.664;2023-10-19T17:39:44;8.35;;;6.88;;
25129;SDS011;13308;50.860;13.664;2023-10-19T17:42:10;7.78;;;6.40;;
25129;SDS011;13308;50.860;13.664;2023-10-19T17:44:35;9.95;;;6.80;;
25129;SDS011;13308;50.860;13.664;2023-10-19T17:47:01;7.57;;;6.50;;
25129;SDS011;13308;50.860;13.664;2023-10-19T17:49:26;10.50;;;7.72;;
25129;SDS011;13308;50.860;13.664;2023-10-19T17:51:53;7.10;;;6.40;;
25129;SDS011;13308;50.860;13.664;2023-10-19T17:54:20;7.75;;;6.10;;
25129;SDS011;13308;50.860;13.664;2023-10-19T17:56:45;7.88;;;7.07;;
25129;SDS011;13308;50.860;13.664;2023-10-19T17:59:12;12.45;;;8.10;;
25129;SDS011;13308;50.860;13.664;2023-10-19T18:01:37;11.73;;;7.80;;
25129;SDS011;13308;50.860;13.664;2023-10-19T18:04:04;9.25;;;7.20;;
25129;SDS011;13308;50.860;13.664;2023-10-19T18:06:29;8.43;;;7.07;;
25129;SDS011;13308;50.860;13.664;2023-10-19T18:08:55;10.00;;;6.85;;
